createdAt,value
2022-11-27T00:04:26.513Z,6.97
2022-11-27T00:09:26.457Z,6.91
2022-11-27T00:14:26.392Z,6.87
2022-11-27T00:19:26.361Z,6.87
2022-11-27T00:24:26.336Z,6.74
2022-11-27T00:29:26.265Z,6.80
2022-11-27T00:34:26.215Z,6.69
2022-11-27T00:39:26.137Z,6.66
2022-11-27T00:44:26.112Z,6.56
2022-11-27T00:49:26.091Z,6.58
2022-11-27T00:54:25.972Z,6.56
2022-11-27T00:59:25.942Z,6.55
2022-11-27T01:04:25.880Z,6.61
2022-11-27T01:09:25.838Z,6.46
2022-11-27T01:14:27.812Z,6.34
2022-11-27T01:19:25.689Z,6.44
2022-11-27T01:24:25.690Z,6.31
2022-11-27T01:29:25.589Z,6.37
2022-11-27T01:34:25.550Z,6.31
2022-11-27T01:39:25.523Z,6.14
2022-11-27T01:44:25.491Z,6.31
2022-11-27T01:49:25.409Z,6.21
2022-11-27T01:54:25.362Z,6.22
2022-11-27T01:59:25.309Z,6.12
2022-11-27T02:04:25.221Z,5.99
2022-11-27T02:09:25.163Z,6.09
2022-11-27T02:14:25.147Z,5.99
2022-11-27T02:19:25.196Z,5.81
2022-11-27T02:24:26.046Z,5.86
2022-11-27T02:29:24.959Z,5.89
2022-11-27T02:34:24.898Z,6.04
2022-11-27T02:39:24.896Z,6.22
2022-11-27T02:44:24.883Z,6.15
2022-11-27T02:49:25.804Z,6.12
2022-11-27T02:54:24.711Z,6.00
2022-11-27T02:59:24.652Z,6.03
2022-11-27T03:04:24.577Z,6.03
2022-11-27T03:09:24.570Z,5.82
2022-11-27T03:14:24.482Z,5.67
2022-11-27T03:19:24.458Z,5.75
2022-11-27T03:24:24.383Z,5.83
2022-11-27T03:29:24.319Z,5.68
2022-11-27T03:34:24.294Z,5.68
2022-11-27T03:39:33.063Z,5.76
2022-11-27T03:44:24.139Z,5.68
2022-11-27T03:49:24.117Z,5.64
2022-11-27T03:54:24.048Z,5.72
2022-11-27T03:59:24.044Z,5.75
2022-11-27T04:04:23.999Z,5.81
2022-11-27T04:09:23.929Z,5.78
2022-11-27T04:14:23.869Z,5.89
2022-11-27T04:19:23.785Z,5.78
2022-11-27T04:24:23.773Z,5.85
2022-11-27T04:29:23.727Z,5.90
2022-11-27T04:34:23.689Z,5.86
2022-11-27T04:39:23.620Z,5.86
2022-11-27T04:44:23.604Z,5.96
2022-11-27T04:49:23.481Z,6.03
2022-11-27T04:54:24.423Z,6.28
2022-11-27T04:59:23.420Z,6.43
2022-11-27T05:04:23.314Z,6.49
2022-11-27T05:09:23.298Z,6.56
2022-11-27T05:14:23.243Z,6.73
2022-11-27T05:19:23.180Z,6.67
2022-11-27T05:24:23.125Z,6.70
2022-11-27T05:29:23.052Z,6.70
2022-11-27T05:34:22.991Z,6.66
2022-11-27T05:39:22.923Z,6.77
2022-11-27T05:44:22.876Z,6.91
2022-11-27T05:49:26.818Z,6.97
2022-11-27T05:54:26.406Z,6.94
2022-11-27T06:01:24.095Z,7.06
2022-11-27T06:06:23.428Z,7.02
2022-11-27T06:14:06.306Z,7.10
2022-11-27T06:26:01.900Z,7.02
2022-11-27T06:37:01.253Z,7.12
2022-11-27T06:42:00.937Z,7.02
2022-11-27T06:47:00.851Z,7.13
2022-11-27T06:52:00.826Z,7.13
2022-11-27T06:57:01.328Z,7.21
2022-11-27T07:02:00.862Z,7.23
2022-11-27T07:07:02.053Z,7.31
2022-11-27T07:12:01.792Z,7.37
2022-11-27T07:17:00.591Z,7.27
2022-11-27T07:22:00.517Z,7.40
2022-11-27T07:27:00.474Z,7.42
2022-11-27T07:32:09.783Z,7.49
2022-11-27T07:37:00.395Z,7.67
2022-11-27T07:42:36.842Z,7.58
2022-11-27T07:47:01.200Z,7.72
2022-11-27T07:52:01.157Z,7.75
2022-11-27T07:57:01.097Z,7.98
2022-11-27T08:02:00.239Z,8.04
2022-11-27T08:07:01.125Z,8.08
2022-11-27T08:11:59.924Z,8.11
2022-11-27T08:16:59.888Z,8.30
2022-11-27T08:22:01.421Z,8.33
2022-11-27T08:26:59.852Z,8.50
2022-11-27T08:31:59.788Z,8.63
2022-11-27T08:37:07.434Z,8.70
2022-11-27T08:42:00.634Z,8.87
2022-11-27T08:47:00.556Z,8.99
2022-11-27T08:51:59.470Z,9.29
2022-11-27T08:56:59.406Z,9.33
2022-11-27T09:02:01.435Z,9.54
2022-11-27T09:06:59.601Z,9.38
2022-11-27T09:11:59.765Z,9.56
2022-11-27T09:17:01.924Z,9.66
2022-11-27T09:21:59.648Z,9.68
2022-11-27T09:27:00.085Z,9.76
2022-11-27T09:31:59.156Z,9.90
2022-11-27T09:37:01.485Z,9.75
2022-11-27T09:42:07.900Z,9.84
2022-11-27T09:46:58.825Z,9.81
2022-11-27T09:51:58.776Z,9.90
2022-11-27T09:56:58.743Z,9.93
2022-11-27T10:01:58.748Z,10.20
2022-11-27T10:06:58.956Z,10.20
2022-11-27T10:11:58.592Z,10.36
2022-11-27T10:16:58.610Z,10.42
2022-11-27T10:21:58.428Z,10.34
2022-11-27T10:26:58.428Z,10.56
2022-11-27T10:31:58.540Z,10.74
2022-11-27T10:36:58.304Z,10.86
2022-11-27T10:41:58.260Z,10.81
2022-11-27T10:46:58.345Z,11.04
2022-11-27T10:51:58.203Z,11.09
2022-11-27T10:56:58.193Z,10.97
2022-11-27T11:01:58.066Z,11.15
2022-11-27T11:06:57.990Z,11.36
2022-11-27T11:11:57.922Z,11.21
2022-11-27T11:16:57.957Z,11.06
2022-11-27T11:21:57.933Z,11.21
2022-11-27T11:26:57.881Z,11.25
2022-11-27T11:31:57.769Z,11.02
2022-11-27T11:36:57.658Z,11.00
2022-11-27T11:41:57.614Z,11.18
2022-11-27T11:46:57.547Z,11.24
2022-11-27T11:51:57.461Z,11.27
2022-11-27T11:56:57.463Z,11.32
2022-11-27T12:01:57.403Z,11.36
2022-11-27T12:06:57.295Z,11.06
2022-11-27T12:11:57.287Z,10.82
2022-11-27T12:16:58.251Z,10.76
2022-11-27T12:21:57.161Z,10.81
2022-11-27T12:26:57.104Z,10.64
2022-11-27T12:31:57.075Z,10.26
2022-11-27T12:36:57.017Z,9.99
2022-11-27T12:41:56.953Z,10.07
2022-11-27T12:46:56.829Z,10.22
2022-11-27T12:51:56.826Z,10.29
2022-11-27T12:56:56.867Z,10.18
2022-11-27T13:01:58.672Z,10.42
2022-11-27T13:06:57.437Z,10.44
2022-11-27T13:11:56.606Z,10.63
2022-11-27T13:16:56.584Z,10.59
2022-11-27T13:21:56.456Z,10.85
2022-11-27T13:26:56.417Z,10.74
2022-11-27T13:31:56.579Z,10.66
2022-11-27T13:36:56.395Z,10.91
2022-11-27T13:41:56.265Z,10.92
2022-11-27T13:46:56.180Z,10.91
2022-11-27T13:51:56.135Z,11.00
2022-11-27T13:56:56.133Z,10.70
2022-11-27T14:01:56.178Z,11.02
2022-11-27T14:06:57.061Z,11.11
2022-11-27T14:11:57.019Z,10.97
2022-11-27T14:16:55.956Z,10.96
2022-11-27T14:21:55.909Z,11.00
2022-11-27T14:26:55.847Z,10.97
2022-11-27T14:31:55.834Z,10.70
2022-11-27T14:36:55.781Z,10.79
2022-11-27T14:41:55.696Z,10.78
2022-11-27T14:46:55.621Z,10.78
2022-11-27T14:51:55.761Z,10.68
2022-11-27T14:56:55.389Z,10.63
2022-11-27T15:01:55.406Z,10.61
2022-11-27T15:06:55.438Z,10.48
2022-11-27T15:11:56.613Z,10.20
2022-11-27T15:16:55.244Z,10.15
2022-11-27T15:21:55.196Z,10.23
2022-11-27T15:26:55.131Z,10.17
2022-11-27T15:31:55.204Z,10.17
2022-11-27T15:36:55.012Z,10.01
2022-11-27T15:41:55.002Z,9.86
2022-11-27T15:46:54.934Z,9.91
2022-11-27T15:51:54.790Z,9.91
2022-11-27T15:56:54.802Z,10.01
2022-11-27T16:01:55.782Z,9.90
2022-11-27T16:06:54.770Z,10.05
2022-11-27T16:11:54.714Z,9.76
2022-11-27T16:16:54.618Z,9.75
2022-11-27T16:21:54.563Z,9.78
2022-11-27T16:26:54.544Z,9.76
2022-11-27T16:31:54.808Z,9.60
2022-11-27T16:36:54.324Z,9.66
2022-11-27T16:41:54.282Z,9.79
2022-11-27T16:46:54.266Z,9.76
2022-11-27T16:51:54.260Z,9.47
2022-11-27T16:56:54.205Z,9.61
2022-11-27T17:01:54.145Z,9.61
2022-11-27T17:06:54.041Z,9.72
2022-11-27T17:11:53.973Z,9.75
2022-11-27T17:16:53.947Z,9.81
2022-11-27T17:21:53.816Z,9.74
2022-11-27T17:26:54.160Z,9.61
2022-11-27T17:31:54.874Z,9.71
2022-11-27T17:36:53.790Z,9.60
2022-11-27T17:41:53.737Z,9.74
2022-11-27T17:46:53.674Z,9.68
2022-11-27T17:51:53.552Z,9.75
2022-11-27T17:56:53.540Z,9.75
2022-11-27T18:01:53.544Z,9.74
2022-11-27T18:06:53.513Z,9.78
2022-11-27T18:11:53.276Z,9.83
2022-11-27T18:16:53.532Z,9.75
2022-11-27T18:21:53.246Z,9.86
2022-11-27T18:27:08.289Z,9.81
2022-11-27T18:31:54.160Z,9.81
2022-11-27T18:36:54.037Z,9.71
2022-11-27T18:41:53.024Z,9.54
2022-11-27T18:46:52.936Z,9.66
2022-11-27T18:51:52.902Z,9.58
2022-11-27T18:56:52.916Z,9.58
2022-11-27T19:01:52.856Z,9.57
2022-11-27T19:06:52.743Z,9.51
2022-11-27T19:11:52.679Z,9.53
2022-11-27T19:16:52.720Z,9.46
2022-11-27T19:21:52.650Z,9.48
2022-11-27T19:26:52.518Z,9.66
2022-11-27T19:31:54.456Z,9.42
2022-11-27T19:36:52.371Z,9.46
2022-11-27T19:41:52.333Z,9.23
2022-11-27T19:46:52.331Z,9.33
2022-11-27T19:51:52.270Z,9.33
2022-11-27T19:56:52.303Z,9.18
2022-11-27T20:01:52.170Z,9.17
2022-11-27T20:06:52.143Z,9.23
2022-11-27T20:11:51.987Z,9.15
2022-11-27T20:16:52.069Z,9.17
2022-11-27T20:21:51.898Z,9.11
2022-11-27T20:26:51.972Z,9.31
2022-11-27T20:31:51.933Z,9.20
2022-11-27T20:36:51.722Z,9.26
2022-11-27T20:41:51.726Z,9.20
2022-11-27T20:46:51.620Z,9.23
2022-11-27T20:51:51.584Z,9.14
2022-11-27T20:56:51.523Z,9.15
2022-11-27T21:01:51.561Z,9.08
2022-11-27T21:06:51.391Z,8.99
2022-11-27T21:11:51.393Z,9.01
2022-11-27T21:16:51.510Z,9.01
2022-11-27T21:21:51.339Z,9.11
2022-11-27T21:26:51.264Z,9.08
2022-11-27T21:31:51.167Z,9.21
2022-11-27T21:36:51.043Z,9.20
2022-11-27T21:41:54.451Z,9.17
2022-11-27T21:46:51.074Z,9.14
2022-11-27T21:51:50.850Z,9.11
2022-11-27T21:56:50.843Z,9.17
2022-11-27T22:01:54.205Z,9.26
2022-11-27T22:06:50.815Z,9.35
2022-11-27T22:11:50.842Z,9.18
2022-11-27T22:16:50.624Z,9.11
2022-11-27T22:21:50.523Z,9.13
2022-11-27T22:26:50.488Z,9.02
2022-11-27T22:31:50.423Z,9.05
2022-11-27T22:36:50.398Z,8.83
2022-11-27T22:41:50.349Z,8.80
2022-11-27T22:46:50.386Z,8.73
2022-11-27T22:51:50.189Z,8.48
2022-11-27T22:56:50.127Z,8.56
2022-11-27T23:02:00.471Z,8.56
2022-11-27T23:06:50.059Z,8.33
2022-11-27T23:11:49.974Z,8.12
2022-11-27T23:16:49.997Z,8.18
2022-11-27T23:21:49.838Z,7.89
2022-11-27T23:26:49.784Z,8.01
2022-11-27T23:31:49.751Z,7.98
2022-11-27T23:36:49.685Z,7.93
2022-11-27T23:41:49.700Z,7.83
2022-11-27T23:46:49.556Z,7.98
2022-11-27T23:51:49.538Z,8.02
2022-11-27T23:56:49.445Z,8.19
